Impacts TAF Board
For situational awareness. Not to be used for flight planning purposes.
IDs:

KLAS - Las Vegas/McCarran I, NV, US

Issued at 0206 UTC 12 Dec 2018
Updated at 0412 UTC 12 Dec 2018
Potential Impact None Slight Moderate High
Time0356Z 12/05Z 12/06Z 12/07Z 12/08Z 12/09Z 12/10Z 12/11Z 12/12Z 12/13Z 12/14Z 12/15Z 12/16Z 12/17Z>>
Type OBS PRVL PRVL PRVL PRVL PRVL PRVL PRVL PRVL PRVL PRVL PRVL PRVL PRVL
VIS 10 >6 >6 >6 >6 >6 >6 >6 >6 >6 >6 >6 >6 >6
CIG -- -- -- -- -- -- -- -- -- -- -- -- -- --
Cover CLR SKC SKC SKC SKC SKC SKC SKC SKC SKC SKC SCT SCT SCT
FltCat VFR VFR VFR VFR VFR VFR VFR VFR VFR VFR VFR VFR VFR VFR
WX -- -- -- -- -- -- -- -- -- -- -- -- -- --
WDir 210 250 250 250 250 250 250 250 250 250 250 240 240 240
WSpd 3 6 6 6 6 6 6 6 6 6 6 6 6 6
WGst -- -- -- -- -- -- -- -- -- -- -- -- -- --
Raw TAF
KLAS 120206Z 1202/1306 25006KT P6SM SKC
  FM121500 24006KT P6SM FEW150 SCT250
  FM121900 36011G17KT P6SM FEW150 SCT250
  FM130100 02011G17KT P6SM FEW150 SCT250


Raw METAR
KLAS 120356Z 21003KT 10SM CLR 12/00 A3007 RMK AO2 SLP178 T01170000
KLAS 120256Z 00000KT 10SM CLR 13/00 A3006 RMK AO2 SLP175 T01330000 51005
KLAS 120156Z 23004KT 10SM CLR 16/M02 A3006 RMK AO2 SLP173 T01561017

METAR Board
Radar Display
Forecast Discussion
For situational awareness. Not to be used for flight planning purposes.